Weather History for KEFT - February, 2014

Change the Weather History Date:

Thursday, February 6, 2014

  Actual Average Record
Temperature  
Mean Temperature -2 °F -  
Max Temperature 5 °F 0 °F 42 °F (2005)
Min Temperature -8 °F - -14 °F (2007)
Degree Days  
Heating Degree Days 66    
Moisture  
Dew Point -7 °F    
Average Humidity 79    
Maximum Humidity 100    
Minimum Humidity 60    
Precipitation  
Precipitation 0.00 in - - ()
Sea Level Pressure  
Sea Level Pressure 30.34 in    
Wind  
Wind Speed 12 mph (West)    
Max Wind Speed 21 mph    
Max Gust Speed 28 mph    
Visibility 10 miles    
Events      
Averages and records for this station are not official NWS values.
T = Trace of Precipitation, MM = Missing Value Source: NWS Daily Summary

Daily Weather History Graph

Daily Weather History Graph

Search for Another Location

Airport or City:

Trip Planner

Search our weather history database for the weather conditions in past years. The results will help you decide how hot, cold, wet, or windy it might be!

Date:

Astronomy

Feb. 06, 2014 Rise Set
Actual Time 7:06 AM CST 5:18 PM CST
Civil Twilight 6:37 AM CST 5:48 PM CST
Nautical Twilight 6:03 AM CST 6:21 PM CST
Astronomical Twilight 5:31 AM CST 6:54 PM CST
Moon 10:50 AM CST (2/6) 12:22 AM CST (2/6)
Length of Visible Light 11h 10m
Length of Day
10h 11m
Waxing Crescent, 49% of the Moon is Illuminated
Feb 6
Waxing Crescent
Feb 6
First Quarter
Feb 14
Full
Feb 22
Last Quarter
Mar 1
New

Hourly Weather History & Observations

Time (CST) Temp. Windchill Dew Point Humidity Pressure Visibility Wind Dir Wind Speed Gust Speed Precip Events Conditions
12:15 AM 0.3 °F -14.8 °F -0.6 °F 96% 30.38 in 10.0 mi WNW 9.2 mph - N/A   Clear
12:35 AM -0.0 °F -15.3 °F -0.9 °F 96% 30.37 in 10.0 mi WNW 9.2 mph - N/A   Clear
1:00 AM -0.6 °F -16.9 °F -1.3 °F 97% 30.37 in 10.0 mi West 10.4 mph - N/A   Clear
1:15 AM -0.9 °F -16.4 °F -1.7 °F 97% 30.37 in 10.0 mi West 9.2 mph - N/A   Scattered Clouds
1:35 AM -1.3 °F -15.7 °F -2.2 °F 96% 30.37 in 10.0 mi West 8.1 mph - N/A   Scattered Clouds
1:55 AM -1.3 °F -15.7 °F -2.2 °F 96% 30.37 in 10.0 mi West 8.1 mph - N/A   Mostly Cloudy
2:15 AM -2.2 °F -18.9 °F -3.1 °F 96% 30.37 in 10.0 mi West 10.4 mph - N/A   Scattered Clouds
2:35 AM -3.1 °F -19.1 °F -4.0 °F 96% 30.37 in 10.0 mi West 9.2 mph - N/A   Clear
2:55 AM -4.2 °F -21.4 °F -5.3 °F 95% 30.37 in 10.0 mi West 10.4 mph - N/A   Clear
3:15 AM -5.1 °F -23.5 °F -5.6 °F 98% 30.37 in 10.0 mi West 11.5 mph - N/A   Clear
3:35 AM -5.8 °F -24.4 °F -6.2 °F 98% 30.37 in 10.0 mi West 11.5 mph - N/A   Clear
3:55 AM -6.0 °F -26.3 °F -6.2 °F 99% 30.37 in 10.0 mi West 13.8 mph - N/A   Clear
4:15 AM -6.0 °F -26.3 °F -6.0 °F 100% 30.37 in 10.0 mi West 13.8 mph - N/A   Mostly Cloudy
4:35 AM -5.4 °F -23.0 °F -6.0 °F 98% 30.36 in 10.0 mi West 10.4 mph - N/A   Mostly Cloudy
4:55 AM -5.8 °F -24.4 °F -6.7 °F 96% 30.36 in 10.0 mi West 11.5 mph - N/A   Scattered Clouds
5:15 AM -6.5 °F -25.3 °F -7.6 °F 95% 30.36 in 10.0 mi West 11.5 mph - N/A   Scattered Clouds
5:35 AM -6.7 °F -25.5 °F -7.6 °F 96% 30.36 in 10.0 mi West 11.5 mph - N/A   Clear
5:55 AM -6.9 °F -25.7 °F -7.6 °F 97% 30.36 in 10.0 mi WSW 11.5 mph - N/A   Clear
6:15 AM -7.1 °F -25.9 °F -7.8 °F 97% 30.35 in 10.0 mi West 11.5 mph - N/A   Clear
6:35 AM -7.8 °F -27.7 °F -8.5 °F 97% 30.35 in 10.0 mi West 12.7 mph - N/A   Clear
6:55 AM -8.0 °F -27.1 °F -8.5 °F 97% 30.35 in 10.0 mi West 11.5 mph - N/A   Clear
7:15 AM -8.7 °F -28.0 °F -9.4 °F 97% 30.35 in 10.0 mi West 11.5 mph - N/A   Clear
7:35 AM -8.5 °F -28.6 °F -9.4 °F 96% 30.35 in 10.0 mi West 12.7 mph - N/A   Clear
7:55 AM -8.0 °F -26.1 °F -8.9 °F 96% 30.36 in 10.0 mi West 10.4 mph - N/A   Clear
8:15 AM -7.6 °F -24.6 °F -9.0 °F 93% 30.37 in 10.0 mi West 9.2 mph - N/A   Clear
8:35 AM -6.9 °F -25.7 °F -8.7 °F 92% 30.36 in 10.0 mi West 11.5 mph - N/A   Clear
8:55 AM -6.0 °F -22.6 °F -8.7 °F 88% 30.37 in 10.0 mi West 9.2 mph - N/A   Clear
9:15 AM -5.4 °F -23.0 °F -10.1 °F 80% 30.37 in 10.0 mi West 10.4 mph - N/A   Clear
9:35 AM -4.5 °F -20.8 °F -10.3 °F 76% 30.37 in 10.0 mi West 9.2 mph - N/A   Clear
9:55 AM -3.3 °F -16.9 °F -10.1 °F 73% 30.37 in 10.0 mi West 6.9 mph - N/A   Clear
10:15 AM -2.2 °F -18.9 °F -10.3 °F 68% 30.38 in 10.0 mi West 10.4 mph - N/A   Clear
10:35 AM -1.5 °F -20.5 °F -9.6 °F 69% 30.38 in 10.0 mi West 13.8 mph - N/A   Clear
10:55 AM -0.9 °F -19.1 °F -9.6 °F 67% 30.39 in 10.0 mi West 12.7 mph - N/A   Clear
11:15 AM -0.2 °F -21.5 °F -9.2 °F 66% 30.38 in 10.0 mi West 18.4 mph - N/A   Clear
11:35 AM -0.0 °F -20.1 °F -9.4 °F 65% 30.38 in 10.0 mi West 16.1 mph - N/A   Clear
11:55 AM 0.5 °F -16.5 °F -9.0 °F 64% 30.37 in 10.0 mi West 11.5 mph - N/A   Clear
12:15 PM 1.4 °F -17.6 °F -8.3 °F 64% 30.36 in 10.0 mi West 15.0 mph 20.7 mph N/A   Clear
12:35 PM 2.1 °F -18.5 °F -8.1 °F 62% 30.35 in 10.0 mi West 18.4 mph - N/A   Clear
12:55 PM 2.5 °F -18.0 °F -7.4 °F 63% 30.34 in 10.0 mi West 18.4 mph 23.0 mph N/A   Clear
1:15 PM 2.8 °F -18.1 °F -7.4 °F 62% 30.33 in 10.0 mi West 19.6 mph - N/A   Clear
1:35 PM 3.6 °F -17.1 °F -6.9 °F 62% 30.33 in 10.0 mi West 19.6 mph 25.3 mph N/A   Clear
1:55 PM 4.3 °F -15.1 °F -6.7 °F 60% 30.32 in 10.0 mi West 17.3 mph 27.6 mph N/A   Clear
2:15 PM 4.6 °F -15.7 °F -6.3 °F 61% 30.32 in 10.0 mi West 19.6 mph 24.2 mph N/A   Clear
2:35 PM 4.6 °F -15.2 °F -6.0 °F 62% 30.31 in 10.0 mi West 18.4 mph 21.9 mph N/A   Clear
2:55 PM 4.6 °F -15.2 °F -6.0 °F 62% 30.31 in 10.0 mi West 18.4 mph 24.2 mph N/A   Clear
3:15 PM 4.6 °F -14.6 °F -6.0 °F 62% 30.30 in 10.0 mi West 17.3 mph 21.9 mph N/A   Clear
3:35 PM 5.0 °F -12.3 °F -6.0 °F 61% 30.29 in 10.0 mi West 13.8 mph 19.6 mph N/A   Clear
3:55 PM 4.5 °F -13.0 °F -6.0 °F 62% 30.29 in 10.0 mi West 13.8 mph 20.7 mph N/A   Clear
4:15 PM 3.9 °F -13.0 °F -6.5 °F 62% 30.29 in 10.0 mi West 12.7 mph - N/A   Clear
4:35 PM 3.4 °F -14.4 °F -6.9 °F 62% 30.28 in 10.0 mi West 13.8 mph - N/A   Clear
4:55 PM 2.7 °F -17.8 °F -7.6 °F 62% 30.29 in 10.0 mi West 18.4 mph 24.2 mph N/A   Clear
5:15 PM 1.4 °F -18.8 °F -7.8 °F 65% 30.29 in 10.0 mi WSW 17.3 mph - N/A   Clear
5:35 PM 0.9 °F -17.6 °F -7.8 °F 67% 30.29 in 10.0 mi WSW 13.8 mph - N/A   Clear
5:55 PM 0.5 °F -20.0 °F -7.8 °F 68% 30.30 in 10.0 mi WSW 17.3 mph - N/A   Clear
6:15 PM 0.1 °F -21.0 °F -8.0 °F 69% 30.30 in 10.0 mi WSW 18.4 mph - N/A   Clear
6:35 PM -0.2 °F -22.1 °F -8.1 °F 69% 30.30 in 10.0 mi WSW 19.6 mph - N/A   Clear
6:55 PM -0.4 °F -22.3 °F -8.0 °F 70% 30.30 in 10.0 mi WSW 19.6 mph - N/A   Clear
7:15 PM -0.6 °F -23.1 °F -8.1 °F 70% 30.30 in 10.0 mi WSW 20.7 mph - N/A   Clear
7:35 PM -0.9 °F -23.5 °F -8.1 °F 72% 30.30 in 10.0 mi WSW 20.7 mph 25.3 mph N/A   Clear
7:55 PM -0.9 °F -22.4 °F -8.0 °F 72% 30.30 in 10.0 mi WSW 18.4 mph - N/A   Clear
8:15 PM -1.3 °F -21.0 °F -8.1 °F 73% 30.29 in 10.0 mi WSW 15.0 mph - N/A   Clear
8:35 PM -0.9 °F -19.1 °F -7.8 °F 73% 30.29 in 10.0 mi WSW 12.7 mph - N/A   Mostly Cloudy
9:00 PM -0.4 °F -19.2 °F -7.2 °F 73% 30.30 in 10.0 mi WSW 13.8 mph - N/A   Mostly Cloudy
9:15 PM -0.4 °F -19.2 °F -7.1 °F 73% 30.30 in 10.0 mi WSW 13.8 mph - N/A   Mostly Cloudy
9:35 PM -0.6 °F -18.6 °F -7.6 °F 72% 30.30 in 10.0 mi WSW 12.7 mph - N/A   Scattered Clouds
9:55 PM -1.3 °F -18.7 °F -7.8 °F 74% 30.30 in 10.0 mi SW 11.5 mph - N/A   Clear
10:20 PM -0.4 °F -19.2 °F -6.9 °F 74% 30.30 in 10.0 mi SW 13.8 mph - N/A   Mostly Cloudy
10:35 PM -0.2 °F -18.9 °F -6.7 °F 74% 30.30 in 10.0 mi SW 13.8 mph - N/A   Overcast
10:55 PM -0.0 °F -19.4 °F -6.3 °F 75% 30.30 in 10.0 mi WSW 15.0 mph - N/A   Overcast
11:15 PM -0.0 °F -19.4 °F -6.2 °F 75% 30.29 in 10.0 mi WSW 15.0 mph - N/A   Mostly Cloudy
11:35 PM 0.1 °F -18.5 °F -5.8 °F 76% 30.28 in 10.0 mi WSW 13.8 mph - N/A   Mostly Cloudy
11:55 PM 0.5 °F -18.7 °F -5.8 °F 75% 30.28 in 10.0 mi WSW 15.0 mph - N/A   Overcast